createdAt,value
2023-03-18T00:04:09.522Z,58.08
2023-03-18T00:09:18.915Z,58.38
2023-03-18T00:14:23.922Z,58.57
2023-03-18T00:19:29.642Z,58.71
2023-03-18T00:24:37.208Z,58.64
2023-03-18T00:29:44.001Z,59.18
2023-03-18T00:34:53.182Z,59.14
2023-03-18T00:40:05.994Z,58.96
2023-03-18T00:45:13.848Z,59.22
2023-03-18T00:50:20.504Z,59.41
2023-03-18T00:55:29.132Z,59.33
2023-03-18T01:00:36.157Z,59.68
2023-03-18T01:05:45.484Z,59.39
2023-03-18T01:10:53.289Z,59.71
2023-03-18T01:15:58.824Z,59.65
2023-03-18T01:21:04.123Z,59.97
2023-03-18T01:26:16.874Z,59.74
2023-03-18T01:31:28.904Z,59.86
2023-03-18T01:36:38.824Z,60.12
2023-03-18T01:41:50.463Z,60.11
2023-03-18T01:47:04.927Z,59.88
2023-03-18T01:52:16.464Z,59.87
2023-03-18T01:57:28.398Z,60.10
2023-03-18T02:02:35.088Z,59.96
2023-03-18T02:07:43.045Z,60.32
2023-03-18T02:12:54.154Z,60.16
2023-03-18T02:18:10.852Z,60.10
2023-03-18T02:23:29.654Z,60.06
2023-03-18T02:28:40.276Z,60.21
2023-03-18T02:33:49.154Z,60.16
2023-03-18T02:38:58.284Z,60.26
2023-03-18T02:44:07.420Z,60.69
2023-03-18T02:49:24.813Z,60.78
2023-03-18T02:54:32.988Z,61.00
2023-03-18T02:59:40.526Z,61.25
2023-03-18T03:04:50.465Z,61.23
2023-03-18T03:10:00.444Z,61.52
2023-03-18T03:15:10.821Z,61.90
2023-03-18T03:20:26.110Z,61.35
2023-03-18T03:25:31.534Z,61.70
2023-03-18T03:30:40.405Z,61.71
2023-03-18T03:35:55.521Z,61.93
2023-03-18T03:41:05.198Z,62.19
2023-03-18T03:46:16.822Z,62.29
2023-03-18T03:51:24.678Z,62.12
2023-03-18T03:56:31.669Z,62.29
2023-03-18T04:01:41.271Z,62.55
2023-03-18T04:06:46.617Z,62.45
2023-03-18T04:11:57.391Z,62.51
2023-03-18T04:17:05.217Z,62.97
2023-03-18T04:22:11.593Z,63.35
2023-03-18T04:27:18.535Z,63.52
2023-03-18T04:32:26.418Z,63.10
2023-03-18T04:37:31.828Z,63.82
2023-03-18T04:42:38.972Z,63.89
2023-03-18T04:47:49.524Z,64.13
2023-03-18T04:52:57.200Z,64.06
2023-03-18T04:58:07.202Z,64.49
2023-03-18T05:03:21.324Z,64.41
2023-03-18T05:08:28.045Z,64.69
2023-03-18T05:13:35.390Z,64.71
2023-03-18T05:18:46.386Z,65.19
2023-03-18T05:23:52.131Z,64.56
2023-03-18T05:29:00.221Z,65.34
2023-03-18T05:34:17.566Z,65.26
2023-03-18T05:39:25.310Z,65.16
2023-03-18T05:44:35.622Z,65.53
2023-03-18T05:49:45.724Z,65.14
2023-03-18T05:54:55.974Z,65.30
2023-03-18T06:00:07.008Z,65.48
2023-03-18T06:05:27.281Z,65.69
2023-03-18T06:10:32.544Z,65.93
2023-03-18T06:15:41.929Z,65.75
2023-03-18T06:21:01.488Z,66.35
2023-03-18T06:26:08.849Z,64.92
2023-03-18T06:31:24.545Z,65.41
2023-03-18T06:36:33.639Z,65.37
2023-03-18T06:41:41.859Z,63.67
2023-03-18T06:47:16.837Z,60.09
2023-03-18T06:52:35.143Z,60.61
2023-03-18T06:57:49.690Z,62.18
2023-03-18T07:03:06.762Z,61.31
2023-03-18T07:08:19.008Z,61.42
2023-03-18T07:13:25.278Z,60.33
2023-03-18T07:18:31.149Z,60.43
2023-03-18T07:23:41.276Z,59.43
2023-03-18T07:28:53.542Z,59.96
2023-03-18T07:33:59.311Z,56.77
2023-03-18T07:39:07.296Z,56.12
2023-03-18T07:44:13.075Z,53.93
2023-03-18T07:49:18.611Z,53.96
2023-03-18T07:54:27.354Z,55.32
2023-03-18T07:59:35.835Z,54.97
2023-03-18T08:04:42.561Z,55.60
2023-03-18T08:09:53.492Z,56.55
2023-03-18T08:14:59.983Z,58.03
2023-03-18T08:20:06.338Z,57.51
2023-03-18T08:25:14.602Z,57.49
2023-03-18T08:30:20.560Z,57.28
2023-03-18T08:35:26.670Z,56.93
2023-03-18T08:40:34.906Z,56.36
2023-03-18T08:45:45.068Z,56.49
2023-03-18T08:50:50.093Z,56.17
2023-03-18T08:56:03.262Z,55.85
2023-03-18T09:01:10.777Z,55.20
2023-03-18T09:06:19.926Z,54.96
2023-03-18T09:11:29.787Z,54.34
2023-03-18T09:16:38.099Z,54.23
2023-03-18T09:21:49.199Z,53.76
2023-03-18T09:26:56.857Z,53.18
2023-03-18T09:32:01.968Z,52.96
2023-03-18T09:37:13.114Z,55.13
2023-03-18T09:42:47.951Z,55.15
2023-03-18T09:48:12.704Z,54.76
2023-03-18T09:53:25.056Z,55.83
2023-03-18T09:58:51.692Z,55.58
2023-03-18T10:04:04.735Z,55.92
2023-03-18T10:09:17.092Z,56.81
2023-03-18T10:14:45.479Z,56.27
2023-03-18T10:19:54.764Z,56.64
2023-03-18T10:25:10.246Z,56.25
2023-03-18T10:30:34.582Z,54.99
2023-03-18T10:35:46.536Z,55.20
2023-03-18T10:40:51.824Z,55.55
2023-03-18T10:46:04.630Z,54.95
2023-03-18T10:51:18.715Z,54.78
2023-03-18T10:56:23.996Z,55.26
2023-03-18T11:01:32.365Z,55.24
2023-03-18T11:06:45.373Z,55.15
2023-03-18T11:11:51.837Z,55.42
2023-03-18T11:17:04.635Z,55.30
2023-03-18T11:22:22.667Z,55.34
2023-03-18T11:27:32.457Z,55.57
2023-03-18T11:32:42.467Z,55.56
2023-03-18T11:37:52.441Z,55.33
2023-03-18T11:43:00.270Z,55.81
2023-03-18T11:48:15.413Z,55.53
2023-03-18T11:53:29.127Z,55.56
2023-03-18T11:58:53.687Z,55.57
2023-03-18T12:04:25.570Z,55.59
2023-03-18T12:09:42.405Z,55.61
2023-03-18T12:14:53.954Z,56.52
2023-03-18T12:20:33.520Z,56.09
2023-03-18T12:26:00.036Z,55.77
2023-03-18T12:31:15.762Z,56.72
2023-03-18T12:36:35.357Z,57.18
2023-03-18T12:41:53.389Z,56.78
2023-03-18T12:47:06.829Z,57.39
2023-03-18T12:52:31.955Z,57.21
2023-03-18T12:57:48.709Z,56.95
2023-03-18T13:03:07.739Z,56.61
2023-03-18T13:08:40.810Z,56.92
2023-03-18T13:13:53.280Z,56.44
2023-03-18T13:19:04.607Z,56.60
2023-03-18T13:24:34.671Z,56.59
2023-03-18T13:29:52.430Z,56.12
2023-03-18T13:35:19.870Z,56.12
2023-03-18T13:40:46.550Z,56.37
2023-03-18T13:45:54.002Z,56.88
2023-03-18T13:51:01.196Z,56.61
2023-03-18T13:56:29.012Z,56.76
2023-03-18T14:01:37.969Z,56.01
2023-03-18T14:06:54.392Z,55.51
2023-03-18T14:12:07.149Z,56.19
2023-03-18T14:17:25.792Z,56.28
2023-03-18T14:22:38.035Z,56.13
2023-03-18T14:27:54.961Z,56.30
2023-03-18T14:33:03.419Z,57.22
2023-03-18T14:38:15.347Z,58.14
2023-03-18T14:43:30.086Z,57.68
2023-03-18T14:48:36.916Z,57.41
2023-03-18T14:53:48.173Z,57.69
2023-03-18T14:58:57.803Z,57.65
2023-03-18T15:04:04.600Z,58.20
2023-03-18T15:09:13.393Z,57.84
2023-03-18T15:14:27.005Z,58.40
2023-03-18T15:19:35.625Z,58.67
2023-03-18T15:24:41.002Z,58.77
2023-03-18T15:29:55.966Z,58.78
2023-03-18T15:35:10.485Z,58.29
2023-03-18T15:40:36.437Z,59.14
2023-03-18T15:45:49.303Z,59.75
2023-03-18T15:50:56.273Z,59.17
2023-03-18T15:56:09.919Z,59.56
2023-03-18T16:01:21.420Z,60.17
2023-03-18T16:06:26.958Z,60.57
2023-03-18T16:11:32.147Z,60.29
2023-03-18T16:16:40.010Z,60.76
2023-03-18T16:21:45.767Z,60.97
2023-03-18T16:26:55.187Z,61.57
2023-03-18T16:32:06.712Z,61.60
2023-03-18T16:37:21.060Z,62.44
2023-03-18T16:42:27.595Z,62.45
2023-03-18T16:47:40.122Z,62.56
2023-03-18T16:52:45.374Z,62.96
2023-03-18T16:57:52.839Z,62.69
2023-03-18T17:03:01.100Z,63.73
2023-03-18T17:08:06.427Z,63.64
2023-03-18T17:13:19.975Z,64.14
2023-03-18T17:18:28.568Z,64.04
2023-03-18T17:23:34.664Z,64.75
2023-03-18T17:28:43.275Z,64.30
2023-03-18T17:33:51.438Z,64.25
2023-03-18T17:38:58.954Z,64.64
2023-03-18T17:44:03.938Z,64.45
2023-03-18T17:49:15.725Z,64.19
2023-03-18T17:54:24.450Z,64.79
2023-03-18T17:59:32.178Z,65.07
2023-03-18T18:04:42.855Z,65.36
2023-03-18T18:09:52.087Z,65.64
2023-03-18T18:14:57.332Z,66.43
2023-03-18T18:20:07.136Z,66.25
2023-03-18T18:25:19.973Z,66.72
2023-03-18T18:30:28.624Z,66.65
2023-03-18T18:35:36.570Z,67.34
2023-03-18T18:40:43.854Z,67.80
2023-03-18T18:45:49.169Z,67.92
2023-03-18T18:51:00.164Z,67.92
2023-03-18T18:56:15.564Z,67.96
2023-03-18T19:01:23.377Z,67.55
2023-03-18T19:06:33.460Z,68.29
2023-03-18T19:11:48.470Z,68.43
2023-03-18T19:16:54.456Z,68.11
2023-03-18T19:22:10.318Z,68.60
2023-03-18T19:27:21.965Z,68.82
2023-03-18T19:32:31.691Z,69.07
2023-03-18T19:37:44.831Z,68.98
2023-03-18T19:42:50.241Z,69.37
2023-03-18T19:47:57.430Z,68.96
2023-03-18T19:53:15.154Z,68.86
2023-03-18T19:58:30.405Z,69.15
2023-03-18T20:03:36.093Z,69.69
2023-03-18T20:08:46.219Z,69.59
2023-03-18T20:13:56.370Z,69.57
2023-03-18T20:19:03.394Z,69.96
2023-03-18T20:24:19.916Z,69.62
2023-03-18T20:29:29.875Z,69.63
2023-03-18T20:34:38.514Z,69.74
2023-03-18T20:39:46.410Z,69.65
2023-03-18T20:44:52.663Z,69.98
2023-03-18T20:49:57.963Z,69.77
2023-03-18T20:55:08.040Z,69.43
2023-03-18T21:00:18.913Z,69.35
2023-03-18T21:05:25.561Z,69.79
2023-03-18T21:10:34.999Z,69.48
2023-03-18T21:15:42.768Z,69.61
2023-03-18T21:20:48.400Z,69.46
2023-03-18T21:25:57.647Z,69.76
2023-03-18T21:31:05.312Z,69.62
2023-03-18T21:36:13.089Z,69.96
2023-03-18T21:41:27.177Z,69.67
2023-03-18T21:46:33.658Z,69.32
2023-03-18T21:51:40.498Z,69.08
2023-03-18T21:56:51.749Z,68.94
2023-03-18T22:02:00.445Z,68.88
2023-03-18T22:07:06.137Z,68.73
2023-03-18T22:12:19.130Z,69.52
2023-03-18T22:17:29.750Z,69.38
2023-03-18T22:22:40.522Z,69.75
2023-03-18T22:27:50.086Z,69.66
2023-03-18T22:32:56.394Z,69.93
2023-03-18T22:38:01.761Z,69.68
2023-03-18T22:43:21.663Z,69.70
2023-03-18T22:48:26.838Z,69.99
2023-03-18T22:53:36.471Z,69.53
2023-03-18T22:58:54.368Z,69.22
2023-03-18T23:04:00.454Z,69.50
2023-03-18T23:09:08.293Z,69.82
2023-03-18T23:14:19.717Z,70.03
2023-03-18T23:19:27.332Z,70.51
2023-03-18T23:24:33.093Z,70.76
2023-03-18T23:29:43.483Z,70.77
2023-03-18T23:34:49.767Z,70.95
2023-03-18T23:39:57.057Z,70.89
2023-03-18T23:45:07.697Z,71.04
2023-03-18T23:50:14.554Z,70.58
2023-03-18T23:55:33.718Z,70.32
